createdAt,value
2018-03-22T00:00:35.373Z,999.09
2018-03-22T00:01:35.459Z,999.08
2018-03-22T00:02:35.547Z,999.04
2018-03-22T00:03:35.634Z,999.07
2018-03-22T00:04:35.724Z,999.03
2018-03-22T00:05:35.811Z,999.00
2018-03-22T00:06:35.902Z,999.02
2018-03-22T00:07:35.996Z,998.97
2018-03-22T00:08:36.078Z,999.01
2018-03-22T00:09:36.168Z,999.00
2018-03-22T00:10:36.258Z,998.97
2018-03-22T00:11:36.344Z,998.97
2018-03-22T00:12:36.438Z,998.91
2018-03-22T00:13:36.526Z,998.92
2018-03-22T00:14:36.615Z,998.90
2018-03-22T00:15:36.702Z,998.93
2018-03-22T00:16:36.788Z,998.94
2018-03-22T00:17:36.878Z,998.95
2018-03-22T00:18:36.968Z,998.93
2018-03-22T00:19:37.059Z,998.96
2018-03-22T00:20:37.145Z,998.92
2018-03-22T00:21:37.233Z,998.93
2018-03-22T00:22:37.320Z,998.88
2018-03-22T00:23:37.412Z,998.89
2018-03-22T00:24:37.500Z,998.87
2018-03-22T00:25:37.585Z,998.82
2018-03-22T00:26:37.675Z,998.87
2018-03-22T00:27:37.762Z,998.87
2018-03-22T00:28:37.852Z,998.81
2018-03-22T00:29:37.946Z,998.80
2018-03-22T00:30:38.029Z,998.84
2018-03-22T00:31:38.116Z,998.85
2018-03-22T00:32:38.208Z,998.84
2018-03-22T00:33:38.292Z,998.83
2018-03-22T00:34:38.383Z,998.85
2018-03-22T00:35:38.471Z,998.86
2018-03-22T00:36:38.559Z,998.85
2018-03-22T00:37:38.646Z,998.85
2018-03-22T00:38:38.733Z,998.84
2018-03-22T00:39:38.820Z,998.80
2018-03-22T00:40:38.912Z,998.80
2018-03-22T00:41:38.993Z,998.82
2018-03-22T00:42:39.076Z,998.72
2018-03-22T00:43:39.170Z,998.74
2018-03-22T00:44:39.260Z,998.67
2018-03-22T00:45:39.344Z,998.63
2018-03-22T00:46:39.434Z,998.65
2018-03-22T00:47:39.518Z,998.63
2018-03-22T00:48:39.612Z,998.64
2018-03-22T00:49:39.697Z,998.59
2018-03-22T00:50:39.785Z,998.59
2018-03-22T00:51:39.870Z,998.58
2018-03-22T00:52:39.959Z,998.55
2018-03-22T00:53:40.051Z,998.56
2018-03-22T00:54:40.140Z,998.53
2018-03-22T00:55:40.226Z,998.55
2018-03-22T00:56:40.314Z,998.54
2018-03-22T00:57:40.399Z,998.56
2018-03-22T00:58:40.487Z,998.50
2018-03-22T00:59:40.576Z,998.46
2018-03-22T01:00:40.663Z,998.46
2018-03-22T01:01:40.745Z,998.44
2018-03-22T01:02:40.828Z,998.41
2018-03-22T01:03:40.927Z,998.34
2018-03-22T01:04:41.003Z,998.33
2018-03-22T01:05:41.090Z,998.34
2018-03-22T01:06:41.177Z,998.31
2018-03-22T01:07:41.261Z,998.30
2018-03-22T01:08:41.347Z,998.32
2018-03-22T01:09:41.434Z,998.28
2018-03-22T01:10:41.527Z,998.28
2018-03-22T01:11:41.610Z,998.28
2018-03-22T01:12:41.702Z,998.25
2018-03-22T01:13:41.786Z,998.27
2018-03-22T01:14:41.877Z,998.23
2018-03-22T01:15:41.966Z,998.21
2018-03-22T01:16:42.049Z,998.18
2018-03-22T01:17:42.141Z,998.15
2018-03-22T01:18:42.231Z,998.18
2018-03-22T01:19:42.321Z,998.14
2018-03-22T01:20:42.406Z,998.08
2018-03-22T01:21:42.494Z,998.07
2018-03-22T01:22:42.589Z,998.12
2018-03-22T01:23:42.671Z,998.11
2018-03-22T01:24:42.757Z,998.06
2018-03-22T01:25:42.842Z,998.06
2018-03-22T01:26:42.934Z,998.05
2018-03-22T01:27:43.022Z,998.03
2018-03-22T01:28:43.110Z,997.97
2018-03-22T01:29:43.196Z,997.94
2018-03-22T01:30:43.285Z,997.93
2018-03-22T01:31:43.377Z,997.94
2018-03-22T01:32:43.469Z,997.90
2018-03-22T01:33:43.576Z,997.93
2018-03-22T01:34:43.647Z,997.87
2018-03-22T01:35:43.739Z,997.89
2018-03-22T01:36:43.830Z,997.88
2018-03-22T01:37:43.917Z,997.87
2018-03-22T01:38:44.004Z,997.87
2018-03-22T01:39:44.089Z,997.88
2018-03-22T01:40:44.182Z,997.85
2018-03-22T01:41:44.279Z,997.85
2018-03-22T01:42:44.360Z,997.84
2018-03-22T01:43:44.457Z,997.79
2018-03-22T01:44:44.541Z,997.74
2018-03-22T01:45:44.630Z,997.72
2018-03-22T01:46:44.725Z,997.63
2018-03-22T01:47:44.810Z,997.60
2018-03-22T01:48:44.897Z,997.63
2018-03-22T01:49:44.987Z,997.61
2018-03-22T01:50:45.076Z,997.62
2018-03-22T01:51:45.163Z,997.65
2018-03-22T01:52:45.252Z,997.67
2018-03-22T01:53:45.337Z,997.67
2018-03-22T01:54:45.422Z,997.64
2018-03-22T01:55:45.514Z,997.63
2018-03-22T01:56:45.598Z,997.57
2018-03-22T01:57:45.691Z,997.54
2018-03-22T01:58:45.776Z,997.50
2018-03-22T01:59:45.864Z,997.44
2018-03-22T02:00:45.951Z,997.46
2018-03-22T02:01:46.061Z,997.42
2018-03-22T02:02:46.126Z,997.45
2018-03-22T02:03:46.216Z,997.39
2018-03-22T02:04:46.306Z,997.40
2018-03-22T02:05:46.391Z,997.46
2018-03-22T02:06:46.481Z,997.40
2018-03-22T02:07:46.568Z,997.45
2018-03-22T02:08:46.653Z,997.41
2018-03-22T02:09:46.741Z,997.37
2018-03-22T02:10:46.826Z,997.34
2018-03-22T02:11:46.917Z,997.32
2018-03-22T02:12:47.010Z,997.33
2018-03-22T02:13:47.097Z,997.27
2018-03-22T02:14:47.183Z,997.24
2018-03-22T02:15:47.272Z,997.22
2018-03-22T02:16:47.360Z,997.20
2018-03-22T02:17:47.447Z,997.21
2018-03-22T02:18:47.534Z,997.22
2018-03-22T02:19:47.624Z,997.28
2018-03-22T02:20:47.711Z,997.22
2018-03-22T02:21:47.798Z,997.23
2018-03-22T02:22:47.890Z,997.24
2018-03-22T02:23:47.976Z,997.27
2018-03-22T02:24:48.062Z,997.27
2018-03-22T02:25:48.150Z,997.25
2018-03-22T02:26:48.237Z,997.24
2018-03-22T02:27:48.345Z,997.23
2018-03-22T02:28:48.433Z,997.22
2018-03-22T02:29:48.522Z,997.20
2018-03-22T02:30:48.614Z,997.21
2018-03-22T02:31:48.708Z,997.27
2018-03-22T02:32:48.796Z,997.20
2018-03-22T02:33:48.885Z,997.22
2018-03-22T02:34:48.976Z,997.21
2018-03-22T02:35:49.060Z,997.20
2018-03-22T02:36:49.148Z,997.17
2018-03-22T02:37:49.239Z,997.13
2018-03-22T02:38:49.325Z,997.11
2018-03-22T02:39:49.411Z,997.06
2018-03-22T02:40:49.499Z,997.03
2018-03-22T02:41:49.588Z,997.03
2018-03-22T02:42:49.729Z,997.02
2018-03-22T02:43:49.763Z,996.96
2018-03-22T02:44:49.855Z,996.92
2018-03-22T02:45:49.941Z,996.91
2018-03-22T02:46:50.027Z,996.89
2018-03-22T02:47:50.110Z,996.87
2018-03-22T02:48:50.203Z,996.84
2018-03-22T02:49:50.291Z,996.83
2018-03-22T02:50:50.374Z,996.83
2018-03-22T02:51:50.466Z,996.78
2018-03-22T02:52:50.555Z,996.78
2018-03-22T02:53:50.645Z,996.78
2018-03-22T02:54:50.735Z,996.78
2018-03-22T02:55:50.824Z,996.75
2018-03-22T02:56:50.912Z,996.77
2018-03-22T02:57:51.000Z,996.72
2018-03-22T02:58:51.088Z,996.69
2018-03-22T02:59:51.178Z,996.67
2018-03-22T03:00:51.268Z,996.69
2018-03-22T03:01:51.355Z,996.63
2018-03-22T03:02:51.444Z,996.62
2018-03-22T03:03:51.534Z,996.63
2018-03-22T03:04:51.624Z,996.59
2018-03-22T03:05:51.711Z,996.60
2018-03-22T03:06:51.803Z,996.60
2018-03-22T03:07:51.889Z,996.52
2018-03-22T03:08:51.977Z,996.49
2018-03-22T03:09:52.063Z,996.49
2018-03-22T03:10:52.149Z,996.48
2018-03-22T03:11:52.237Z,996.49
2018-03-22T03:12:52.328Z,996.48
2018-03-22T03:13:52.412Z,996.43
2018-03-22T03:14:52.501Z,996.40
2018-03-22T03:15:52.588Z,996.41
2018-03-22T03:16:52.675Z,996.43
2018-03-22T03:17:52.765Z,996.35
2018-03-22T03:18:52.854Z,996.33
2018-03-22T03:19:52.943Z,996.35
2018-03-22T03:20:53.033Z,996.27
2018-03-22T03:21:53.128Z,996.29
2018-03-22T03:22:53.214Z,996.29
2018-03-22T03:23:53.305Z,996.24
2018-03-22T03:24:53.392Z,996.22
2018-03-22T03:25:53.479Z,996.22
2018-03-22T03:26:53.567Z,996.19
2018-03-22T03:27:53.656Z,996.17
2018-03-22T03:28:53.745Z,996.19
2018-03-22T03:29:53.833Z,996.12
2018-03-22T03:30:53.923Z,996.09
2018-03-22T03:31:54.011Z,996.11
2018-03-22T03:32:54.097Z,996.10
2018-03-22T03:33:54.184Z,996.05
2018-03-22T03:34:54.272Z,996.03
2018-03-22T03:35:54.357Z,996.01
2018-03-22T03:36:54.451Z,996.00
2018-03-22T03:37:54.539Z,995.96
2018-03-22T03:38:54.632Z,995.95
2018-03-22T03:39:54.721Z,995.93
2018-03-22T03:40:54.808Z,995.92
2018-03-22T03:41:54.896Z,995.91
2018-03-22T03:42:54.981Z,995.94
2018-03-22T03:43:55.072Z,995.91
2018-03-22T03:44:55.163Z,995.90
2018-03-22T03:45:55.252Z,995.89
2018-03-22T03:46:55.336Z,995.90
2018-03-22T03:47:55.424Z,995.87
2018-03-22T03:48:55.513Z,995.87
2018-03-22T03:49:55.604Z,995.82
2018-03-22T03:50:55.693Z,995.81
2018-03-22T03:51:55.782Z,995.76
2018-03-22T03:52:55.870Z,995.77
2018-03-22T03:53:55.958Z,995.71
2018-03-22T03:54:56.043Z,995.73
2018-03-22T03:55:56.137Z,995.71
2018-03-22T03:56:56.226Z,995.68
2018-03-22T03:57:56.314Z,995.69
2018-03-22T03:58:56.402Z,995.69
2018-03-22T03:59:56.491Z,995.64
2018-03-22T04:00:56.576Z,995.66
2018-03-22T04:01:56.666Z,995.63
2018-03-22T04:02:56.753Z,995.57
2018-03-22T04:03:56.845Z,995.58
2018-03-22T04:04:56.943Z,995.56
2018-03-22T04:05:57.029Z,995.54
2018-03-22T04:06:57.119Z,995.52
2018-03-22T04:07:57.207Z,995.49
2018-03-22T04:08:57.294Z,995.42
2018-03-22T04:09:57.380Z,995.41
2018-03-22T04:10:57.468Z,995.41
2018-03-22T04:11:57.609Z,995.41
2018-03-22T04:12:57.645Z,995.42
2018-03-22T04:13:57.741Z,995.39
2018-03-22T04:14:57.817Z,995.39
2018-03-22T04:15:57.906Z,995.39
2018-03-22T04:16:57.995Z,995.42
2018-03-22T04:17:58.088Z,995.43
2018-03-22T04:18:58.182Z,995.32
2018-03-22T04:19:58.266Z,995.33
2018-03-22T04:20:58.357Z,995.30
2018-03-22T04:21:58.445Z,995.31
2018-03-22T04:22:58.530Z,995.30
2018-03-22T04:23:58.625Z,995.31
2018-03-22T04:24:58.707Z,995.33
2018-03-22T04:25:58.794Z,995.31
2018-03-22T04:26:58.880Z,995.39
2018-03-22T04:27:58.970Z,995.37
2018-03-22T04:28:59.059Z,995.37
2018-03-22T04:29:59.146Z,995.33
2018-03-22T04:30:59.235Z,995.28
2018-03-22T04:31:59.323Z,995.27
2018-03-22T04:32:59.411Z,995.29
2018-03-22T04:33:59.497Z,995.26
2018-03-22T04:34:59.586Z,995.24
2018-03-22T04:35:59.679Z,995.23
2018-03-22T04:36:59.757Z,995.22
2018-03-22T04:37:59.845Z,995.17
2018-03-22T04:38:59.941Z,995.12
2018-03-22T04:40:00.018Z,995.07
2018-03-22T04:41:00.105Z,994.96
2018-03-22T04:42:00.194Z,994.90
2018-03-22T04:43:00.283Z,994.89
2018-03-22T04:44:00.372Z,994.90
2018-03-22T04:45:00.458Z,994.94
2018-03-22T04:46:00.547Z,994.90
2018-03-22T04:47:00.636Z,994.96
2018-03-22T04:48:00.727Z,994.98
2018-03-22T04:49:00.814Z,994.94
2018-03-22T04:50:00.902Z,994.94
2018-03-22T04:51:00.992Z,994.94
2018-03-22T04:52:01.088Z,994.87
2018-03-22T04:53:01.168Z,994.86
2018-03-22T04:54:01.260Z,994.88
2018-03-22T04:55:01.347Z,994.89
2018-03-22T04:56:01.432Z,994.86
2018-03-22T04:57:01.522Z,994.90
2018-03-22T04:58:01.640Z,994.85
2018-03-22T04:59:01.700Z,994.84
2018-03-22T05:00:01.788Z,994.79
2018-03-22T05:01:01.875Z,994.83
2018-03-22T05:02:01.965Z,994.77
2018-03-22T05:03:02.056Z,994.69
2018-03-22T05:04:02.144Z,994.69
2018-03-22T05:05:02.232Z,994.65
2018-03-22T05:06:02.319Z,994.65
2018-03-22T05:07:02.408Z,994.64
2018-03-22T05:08:02.493Z,994.65
2018-03-22T05:09:02.582Z,994.61
2018-03-22T05:10:02.673Z,994.61
2018-03-22T05:11:02.761Z,994.60
2018-03-22T05:12:02.855Z,994.52
2018-03-22T05:13:02.943Z,994.49
2018-03-22T05:14:03.031Z,994.48
2018-03-22T05:15:03.119Z,994.48
2018-03-22T05:16:03.207Z,994.48
2018-03-22T05:17:03.293Z,994.50
2018-03-22T05:18:03.383Z,994.49
2018-03-22T05:19:03.469Z,994.42
2018-03-22T05:20:03.563Z,994.46
2018-03-22T05:21:03.656Z,994.45
2018-03-22T05:22:03.746Z,994.48
2018-03-22T05:23:03.820Z,994.45
2018-03-22T05:24:03.907Z,994.43
2018-03-22T05:25:04.017Z,994.40
2018-03-22T05:26:04.084Z,994.45
2018-03-22T05:27:04.171Z,994.48
2018-03-22T05:28:04.258Z,994.45
2018-03-22T05:29:04.345Z,994.41
2018-03-22T05:30:04.434Z,994.41
2018-03-22T05:31:04.515Z,994.37
2018-03-22T05:32:04.603Z,994.39
2018-03-22T05:33:04.691Z,994.33
2018-03-22T05:34:04.782Z,994.31
2018-03-22T05:35:04.869Z,994.30
2018-03-22T05:36:04.957Z,994.24
2018-03-22T05:37:05.053Z,994.28
2018-03-22T05:38:05.136Z,994.29
2018-03-22T05:39:05.222Z,994.23
2018-03-22T05:40:05.317Z,994.25
2018-03-22T05:41:05.392Z,994.18
2018-03-22T05:42:05.484Z,994.19
2018-03-22T05:43:05.574Z,994.17
2018-03-22T05:44:05.664Z,994.15
2018-03-22T05:45:05.754Z,994.14
2018-03-22T05:46:05.880Z,994.13
2018-03-22T05:47:05.931Z,994.14
2018-03-22T05:48:06.018Z,994.12
2018-03-22T05:49:06.106Z,994.09
2018-03-22T05:50:06.193Z,994.07
2018-03-22T05:51:06.286Z,994.10
2018-03-22T05:52:06.372Z,994.08
2018-03-22T05:53:06.462Z,994.06
2018-03-22T05:54:06.552Z,994.05
2018-03-22T05:55:06.646Z,994.08
2018-03-22T05:56:06.734Z,994.05
2018-03-22T05:57:06.824Z,994.06
2018-03-22T05:58:06.912Z,994.05
2018-03-22T05:59:07.000Z,994.04
2018-03-22T06:00:07.100Z,993.99
2018-03-22T06:01:07.184Z,993.95
2018-03-22T06:02:07.282Z,993.92
2018-03-22T06:03:07.424Z,993.90
2018-03-22T06:04:07.453Z,993.88
2018-03-22T06:05:07.542Z,993.91
2018-03-22T06:06:07.632Z,993.90
2018-03-22T06:07:07.724Z,993.80
2018-03-22T06:08:07.812Z,993.80
2018-03-22T06:09:07.902Z,993.78
2018-03-22T06:10:07.997Z,993.76
2018-03-22T06:11:08.088Z,993.74
2018-03-22T06:12:08.180Z,993.70
2018-03-22T06:13:08.271Z,993.67
2018-03-22T06:14:08.356Z,993.67
2018-03-22T06:15:08.446Z,993.66
2018-03-22T06:16:08.536Z,993.65
2018-03-22T06:17:08.626Z,993.61
2018-03-22T06:18:08.715Z,993.61
2018-03-22T06:19:08.805Z,993.62
2018-03-22T06:20:08.901Z,993.64
2018-03-22T06:21:08.989Z,993.64
2018-03-22T06:22:09.079Z,993.63
2018-03-22T06:23:09.172Z,993.67
2018-03-22T06:24:09.262Z,993.66
2018-03-22T06:25:09.349Z,993.67
2018-03-22T06:26:09.445Z,993.68
2018-03-22T06:27:09.541Z,993.67
2018-03-22T06:28:09.629Z,993.72
2018-03-22T06:29:09.745Z,993.71
2018-03-22T06:30:09.834Z,993.65
2018-03-22T06:31:09.924Z,993.62
2018-03-22T06:32:10.013Z,993.58
2018-03-22T06:33:10.105Z,993.59
2018-03-22T06:34:10.193Z,993.56
2018-03-22T06:35:10.285Z,993.55
2018-03-22T06:36:10.367Z,993.51
2018-03-22T06:37:10.454Z,993.50
2018-03-22T06:38:10.549Z,993.54
2018-03-22T06:39:10.634Z,993.50
2018-03-22T06:40:10.728Z,993.43
2018-03-22T06:41:10.819Z,993.44
2018-03-22T06:42:10.893Z,993.40
2018-03-22T06:43:10.987Z,993.39
2018-03-22T06:44:11.094Z,993.36
2018-03-22T06:45:11.182Z,993.41
2018-03-22T06:46:11.271Z,993.42
2018-03-22T06:47:11.364Z,993.38
2018-03-22T06:48:11.465Z,993.36
2018-03-22T06:49:11.554Z,993.37
2018-03-22T06:50:11.646Z,993.35
2018-03-22T06:51:11.730Z,993.33
2018-03-22T06:52:11.826Z,993.35
2018-03-22T06:53:11.909Z,993.27
2018-03-22T06:54:12.001Z,993.30
2018-03-22T06:55:12.091Z,993.29
2018-03-22T06:56:12.180Z,993.22
2018-03-22T06:57:12.269Z,993.19
2018-03-22T06:58:12.358Z,993.22
2018-03-22T06:59:12.457Z,993.21
2018-03-22T07:00:12.542Z,993.13
2018-03-22T07:01:12.633Z,993.17
2018-03-22T07:02:12.723Z,993.16
2018-03-22T07:03:12.815Z,993.08
2018-03-22T07:04:12.903Z,993.13
2018-03-22T07:05:12.995Z,993.14
2018-03-22T07:06:13.084Z,993.14
2018-03-22T07:07:13.194Z,993.13
2018-03-22T07:08:13.282Z,993.13
2018-03-22T07:09:13.374Z,993.11
2018-03-22T07:10:13.462Z,993.12
2018-03-22T07:11:13.551Z,993.04
2018-03-22T07:12:13.637Z,993.10
2018-03-22T07:13:13.727Z,993.08
2018-03-22T07:14:13.815Z,993.07
2018-03-22T07:15:13.901Z,993.12
2018-03-22T07:16:13.989Z,993.02
2018-03-22T07:17:14.082Z,992.98
2018-03-22T07:18:14.171Z,992.98
2018-03-22T07:19:14.261Z,992.90
2018-03-22T07:20:14.344Z,992.91
2018-03-22T07:21:14.440Z,992.92
2018-03-22T07:22:14.532Z,992.87
2018-03-22T07:23:14.627Z,992.85
2018-03-22T07:24:14.717Z,992.89
2018-03-22T07:25:14.808Z,992.84
2018-03-22T07:26:14.920Z,992.76
2018-03-22T07:27:15.009Z,992.80
2018-03-22T07:28:15.098Z,992.80
2018-03-22T07:29:15.187Z,992.77
2018-03-22T07:30:15.279Z,992.80
2018-03-22T07:31:15.367Z,992.78
2018-03-22T07:32:15.457Z,992.71
2018-03-22T07:33:15.543Z,992.68
2018-03-22T07:34:15.630Z,992.65
2018-03-22T07:35:15.720Z,992.59
2018-03-22T07:36:15.811Z,992.61
2018-03-22T07:37:15.901Z,992.58
2018-03-22T07:38:15.988Z,992.51
2018-03-22T07:39:16.069Z,992.40
2018-03-22T07:40:16.169Z,992.40
2018-03-22T07:41:16.261Z,992.39
2018-03-22T07:42:16.353Z,992.37
2018-03-22T07:43:16.445Z,992.41
2018-03-22T07:44:16.534Z,992.42
2018-03-22T07:45:16.644Z,992.45
2018-03-22T07:46:16.734Z,992.44
2018-03-22T07:47:16.872Z,992.49
2018-03-22T07:48:16.911Z,992.36
2018-03-22T07:49:16.999Z,992.38
2018-03-22T07:50:17.091Z,992.36
2018-03-22T07:51:17.179Z,992.38
2018-03-22T07:52:17.278Z,992.34
2018-03-22T07:53:17.360Z,992.35
2018-03-22T07:54:17.450Z,992.38
2018-03-22T07:55:17.539Z,992.43
2018-03-22T07:56:17.631Z,992.42
2018-03-22T07:57:17.721Z,992.43
2018-03-22T07:58:17.803Z,992.46
2018-03-22T07:59:17.890Z,992.43
2018-03-22T08:00:17.981Z,992.42
2018-03-22T08:01:18.072Z,992.38
2018-03-22T08:02:18.163Z,992.42
2018-03-22T08:03:18.254Z,992.32
2018-03-22T08:04:18.344Z,992.27
2018-03-22T08:05:18.431Z,992.31
2018-03-22T08:06:18.524Z,992.31
2018-03-22T08:07:18.612Z,992.34
2018-03-22T08:08:18.706Z,992.31
2018-03-22T08:09:18.795Z,992.31
2018-03-22T08:10:18.884Z,992.31
2018-03-22T08:11:18.978Z,992.33
2018-03-22T08:12:19.068Z,992.33
2018-03-22T08:13:19.151Z,992.34
2018-03-22T08:14:19.240Z,992.31
2018-03-22T08:15:19.385Z,992.33
2018-03-22T08:16:19.418Z,992.29
2018-03-22T08:17:19.506Z,992.32
2018-03-22T08:18:19.594Z,992.32
2018-03-22T08:19:19.688Z,992.28
2018-03-22T08:20:19.778Z,992.34
2018-03-22T08:21:19.864Z,992.28
2018-03-22T08:22:19.949Z,992.28
2018-03-22T08:23:20.032Z,992.34
2018-03-22T08:24:20.123Z,992.36
2018-03-22T08:25:20.212Z,992.32
2018-03-22T08:26:20.331Z,992.28
2018-03-22T08:27:20.392Z,992.30
2018-03-22T08:28:20.481Z,992.30
2018-03-22T08:29:20.569Z,992.33
2018-03-22T08:30:20.660Z,992.30
2018-03-22T08:31:20.749Z,992.28
2018-03-22T08:32:20.835Z,992.26
2018-03-22T08:33:20.927Z,992.24
2018-03-22T08:34:21.018Z,992.22
2018-03-22T08:35:21.119Z,992.22
2018-03-22T08:36:21.205Z,992.25
2018-03-22T08:37:21.294Z,992.23
2018-03-22T08:38:21.393Z,992.18
2018-03-22T08:39:21.476Z,992.22
2018-03-22T08:40:21.562Z,992.18
2018-03-22T08:41:21.688Z,992.20
2018-03-22T08:42:21.744Z,992.21
2018-03-22T08:43:21.832Z,992.17
2018-03-22T08:44:21.922Z,992.11
2018-03-22T08:45:22.011Z,992.12
2018-03-22T08:46:22.100Z,992.10
2018-03-22T08:47:22.191Z,992.12
2018-03-22T08:48:22.325Z,992.11
2018-03-22T08:49:22.370Z,992.13
2018-03-22T08:50:22.458Z,992.06
2018-03-22T08:51:22.548Z,992.11
2018-03-22T08:52:22.624Z,992.03
2018-03-22T08:53:22.729Z,992.06
2018-03-22T08:54:22.818Z,992.05
2018-03-22T08:55:22.906Z,992.03
2018-03-22T08:56:22.999Z,992.00
2018-03-22T08:57:23.086Z,992.04
2018-03-22T08:58:23.179Z,991.98
2018-03-22T08:59:23.264Z,992.00
2018-03-22T09:00:23.353Z,991.96
2018-03-22T09:01:23.442Z,991.87
2018-03-22T09:02:23.532Z,991.86
2018-03-22T09:03:23.623Z,991.88
2018-03-22T09:04:23.712Z,991.93
2018-03-22T09:05:23.803Z,991.85
2018-03-22T09:06:23.891Z,991.89
2018-03-22T09:07:23.980Z,991.82
2018-03-22T09:08:24.048Z,991.79
2018-03-22T09:09:24.135Z,991.80
2018-03-22T09:10:24.229Z,991.73
2018-03-22T09:11:24.317Z,991.77
2018-03-22T09:12:24.406Z,991.75
2018-03-22T09:13:24.491Z,991.75
2018-03-22T09:14:24.642Z,991.73
2018-03-22T09:15:24.670Z,991.65
2018-03-22T09:16:24.757Z,991.69
2018-03-22T09:17:24.848Z,991.65
2018-03-22T09:18:24.940Z,991.68
2018-03-22T09:19:25.016Z,991.68
2018-03-22T09:20:25.105Z,991.63
2018-03-22T09:21:25.194Z,991.57
2018-03-22T09:22:25.349Z,991.55
2018-03-22T09:23:25.367Z,991.45
2018-03-22T09:24:25.455Z,991.50
2018-03-22T09:25:25.548Z,991.45
2018-03-22T09:26:25.636Z,991.48
2018-03-22T09:27:25.724Z,991.41
2018-03-22T09:28:25.815Z,991.40
2018-03-22T09:29:25.909Z,991.36
2018-03-22T09:30:25.996Z,991.41
2018-03-22T09:31:26.095Z,991.39
2018-03-22T09:32:26.186Z,991.36
2018-03-22T09:33:26.279Z,991.42
2018-03-22T09:34:26.367Z,991.41
2018-03-22T09:35:26.465Z,991.35
2018-03-22T09:36:26.552Z,991.39
2018-03-22T09:37:26.641Z,991.42
2018-03-22T09:38:26.727Z,991.35
2018-03-22T09:39:26.815Z,991.37
2018-03-22T09:40:26.905Z,991.31
2018-03-22T09:41:27.002Z,991.34
2018-03-22T09:42:27.088Z,991.36
2018-03-22T09:43:27.179Z,991.29
2018-03-22T09:44:27.256Z,991.27
2018-03-22T09:45:27.356Z,991.22
2018-03-22T09:46:27.451Z,991.24
2018-03-22T09:47:27.541Z,991.22
2018-03-22T09:48:27.626Z,991.22
2018-03-22T09:49:27.713Z,991.25
2018-03-22T09:50:27.822Z,991.25
2018-03-22T09:51:27.919Z,991.25
2018-03-22T09:52:28.006Z,991.25
2018-03-22T09:53:28.096Z,991.22
2018-03-22T09:54:28.187Z,991.23
2018-03-22T09:55:28.275Z,991.20
2018-03-22T09:56:28.364Z,991.24
2018-03-22T09:57:28.458Z,991.26
2018-03-22T09:58:28.550Z,991.26
2018-03-22T09:59:28.641Z,991.23
2018-03-22T10:00:28.732Z,991.22
2018-03-22T10:01:28.822Z,991.19
2018-03-22T10:02:28.912Z,991.20
2018-03-22T10:03:29.003Z,991.19
2018-03-22T10:04:29.096Z,991.18
2018-03-22T10:05:29.185Z,991.14
2018-03-22T10:06:29.275Z,991.18
2018-03-22T10:07:29.366Z,991.12
2018-03-22T10:08:29.499Z,991.15
2018-03-22T10:09:29.555Z,991.14
2018-03-22T10:10:29.644Z,991.11
2018-03-22T10:11:29.732Z,991.08
2018-03-22T10:12:29.827Z,991.02
2018-03-22T10:13:29.920Z,991.05
2018-03-22T10:14:30.015Z,991.03
2018-03-22T10:15:30.102Z,991.03
2018-03-22T10:16:30.189Z,991.01
2018-03-22T10:17:30.270Z,990.96
2018-03-22T10:18:30.360Z,991.00
2018-03-22T10:19:30.451Z,990.97
2018-03-22T10:20:30.538Z,990.91
2018-03-22T10:21:30.630Z,990.92
2018-03-22T10:22:30.713Z,990.90
2018-03-22T10:23:30.812Z,990.92
2018-03-22T10:24:30.904Z,990.94
2018-03-22T10:25:30.996Z,991.02
2018-03-22T10:26:31.085Z,990.95
2018-03-22T10:27:31.179Z,990.94
2018-03-22T10:28:31.285Z,990.96
2018-03-22T10:29:31.374Z,990.92
2018-03-22T10:30:31.468Z,990.95
2018-03-22T10:31:31.554Z,991.01
2018-03-22T10:32:31.647Z,990.93
2018-03-22T10:33:31.739Z,990.94
2018-03-22T10:34:31.827Z,990.93
2018-03-22T10:35:31.914Z,990.96
2018-03-22T10:36:31.999Z,990.92
2018-03-22T10:37:32.098Z,990.88
2018-03-22T10:38:32.190Z,990.90
2018-03-22T10:39:32.281Z,990.89
2018-03-22T10:40:32.372Z,990.86
2018-03-22T10:41:32.462Z,990.85
2018-03-22T10:42:32.544Z,990.87
2018-03-22T10:43:32.645Z,990.81
2018-03-22T10:44:32.729Z,990.76
2018-03-22T10:45:32.818Z,990.82
2018-03-22T10:46:32.954Z,990.82
2018-03-22T10:47:33.009Z,990.77
2018-03-22T10:48:33.098Z,990.78
2018-03-22T10:49:33.188Z,990.77
2018-03-22T10:50:33.277Z,990.73
2018-03-22T10:51:33.366Z,990.76
2018-03-22T10:52:33.447Z,990.74
2018-03-22T10:53:33.541Z,990.76
2018-03-22T10:54:33.633Z,990.79
2018-03-22T10:55:33.720Z,990.75
2018-03-22T10:56:33.812Z,990.75
2018-03-22T10:57:33.917Z,990.70
2018-03-22T10:58:33.996Z,990.65
2018-03-22T10:59:34.086Z,990.67
2018-03-22T11:00:34.167Z,990.65
2018-03-22T11:01:34.270Z,990.65
2018-03-22T11:02:34.374Z,990.62
2018-03-22T11:03:34.452Z,990.67
2018-03-22T11:04:34.541Z,990.60
2018-03-22T11:05:34.633Z,990.67
2018-03-22T11:06:34.738Z,990.63
2018-03-22T11:07:34.834Z,990.60
2018-03-22T11:08:34.914Z,990.64
2018-03-22T11:09:35.005Z,990.60
2018-03-22T11:10:35.097Z,990.56
2018-03-22T11:11:35.185Z,990.57
2018-03-22T11:12:35.274Z,990.57
2018-03-22T11:13:35.363Z,990.55
2018-03-22T11:14:35.450Z,990.54
2018-03-22T11:15:35.544Z,990.49
2018-03-22T11:16:35.649Z,990.49
2018-03-22T11:17:35.722Z,990.48
2018-03-22T11:18:35.815Z,990.41
2018-03-22T11:19:35.908Z,990.40
2018-03-22T11:20:35.995Z,990.31
2018-03-22T11:21:36.084Z,990.34
2018-03-22T11:22:36.174Z,990.34
2018-03-22T11:23:36.272Z,990.35
2018-03-22T11:24:36.359Z,990.36
2018-03-22T11:25:36.465Z,990.34
2018-03-22T11:26:36.552Z,990.33
2018-03-22T11:27:36.638Z,990.34
2018-03-22T11:28:36.728Z,990.31
2018-03-22T11:29:36.818Z,990.33
2018-03-22T11:30:36.909Z,990.32
2018-03-22T11:31:37.003Z,990.29
2018-03-22T11:32:37.088Z,990.28
2018-03-22T11:33:37.179Z,990.26
2018-03-22T11:34:37.268Z,990.26
2018-03-22T11:35:37.360Z,990.18
2018-03-22T11:36:37.456Z,990.22
2018-03-22T11:37:37.549Z,990.18
2018-03-22T11:38:37.644Z,990.17
2018-03-22T11:39:37.735Z,990.18
2018-03-22T11:40:37.820Z,990.16
2018-03-22T11:41:37.907Z,990.15
2018-03-22T11:42:38.000Z,990.11
2018-03-22T11:43:38.091Z,990.19
2018-03-22T11:44:38.184Z,990.12
2018-03-22T11:45:38.273Z,990.13
2018-03-22T11:46:38.365Z,990.10
2018-03-22T11:47:38.456Z,990.09
2018-03-22T11:48:38.547Z,990.09
2018-03-22T11:49:38.638Z,990.08
2018-03-22T11:50:38.736Z,990.07
2018-03-22T11:51:38.822Z,990.06
2018-03-22T11:52:38.912Z,990.04
2018-03-22T11:53:39.021Z,990.05
2018-03-22T11:54:39.091Z,990.01
2018-03-22T11:55:39.184Z,990.03
2018-03-22T11:56:39.277Z,989.99
2018-03-22T11:57:39.371Z,990.02
2018-03-22T11:58:39.461Z,989.97
2018-03-22T11:59:39.551Z,989.99
2018-03-22T12:00:39.644Z,990.00
2018-03-22T12:01:39.735Z,989.99
2018-03-22T12:02:39.826Z,990.01
2018-03-22T12:03:39.925Z,989.99
2018-03-22T12:04:40.039Z,989.96
2018-03-22T12:05:40.109Z,989.96
2018-03-22T12:06:40.215Z,989.89
2018-03-22T12:07:40.290Z,989.88
2018-03-22T12:08:40.380Z,989.85
2018-03-22T12:09:40.472Z,989.84
2018-03-22T12:10:40.562Z,989.84
2018-03-22T12:11:40.656Z,989.81
2018-03-22T12:12:40.752Z,989.86
2018-03-22T12:13:40.837Z,989.82
2018-03-22T12:14:40.927Z,989.85
2018-03-22T12:15:41.020Z,989.84
2018-03-22T12:16:41.116Z,989.80
2018-03-22T12:17:41.208Z,989.80
2018-03-22T12:18:41.298Z,989.76
2018-03-22T12:19:41.389Z,989.79
2018-03-22T12:20:41.479Z,989.79
2018-03-22T12:21:41.624Z,989.79
2018-03-22T12:22:41.652Z,989.82
2018-03-22T12:23:41.751Z,989.79
2018-03-22T12:24:41.842Z,989.79
2018-03-22T12:25:41.932Z,989.82
2018-03-22T12:26:42.024Z,989.80
2018-03-22T12:27:42.123Z,989.82
2018-03-22T12:28:42.205Z,989.81
2018-03-22T12:29:42.291Z,989.81